Romulus, MI

10:55 PM EST on March 04, 2015 (GMT -0500)
Near I-94/275 | Change Station
CLOSE
Current Station
Personal Weather Station
Location: Romulus, MI
Elevation: 679 ft
Nearby Weather Stations

Elev 679 ft 42.22 °N, 83.40 °W | Updated 58 seconds ago

Mostly Cloudy
Mostly Cloudy
18.1 °F
Feels Like 6 °F
N
10.8
Wind Variable Wind from WNW
Gusts 15.0 mph

Today
High -- | Low -- °F
--% Chance of Precip.
Yesterday
High -- | Low -- °F
Precip. -- in
7:04 AM 6:26 PM
Full, 100% visible
Pressure 30.20 in
Visibility 10.0 miles
Clouds Few 13000 ft
Mostly Cloudy 18000 ft
Windchill 6 °F
Dew Point 5 °F
Humidity 55%
Rainfall in
Snow Depth Not available.
UV 0 out of 12
Pollen .40 out of 12
Air Quality Not available.
Flu Activity Not available.
METAR KDTW 050253Z 30014G26KT 10SM FEW130 BKN180 M07/M17 A3017 RMK AO2 PK WND 23033/0220 SLP227 T10671172 51041 $

More Conditions Fewer Conditions

Pressure 30.20 in
Visibility 10.0 miles
Clouds Few 13000 ft
Mostly Cloudy 18000 ft
Windchill 6 °F
Dew Point 5 °F
Humidity 55%
Rainfall in
Snow Depth Not available.
UV 0 out of 12
Pollen .40 out of 12
Air Quality Not available.
Flu Activity Not available.
METAR KDTW 050253Z 30014G26KT 10SM FEW130 BKN180 M07/M17 A3017 RMK AO2 PK WND 23033/0220 SLP227 T10671172 51041 $

More Conditions Fewer Conditions

10-Day Weather Forecast

Almanac

Astronomy

Mar. 04, 2015 Rise Set
Actual Time
Civil Twilight
Nautical Twilight
Astronomical Twilight
Moon
Length of Visible Light
Length of Day
Tomorrow will be .
, % of the Moon is Illuminated

Today's Extremes

State Highs State Lows

Community

WunderPhotos

Upload Photos

1,802,655 photos uploaded!

WunderBlogs® & News

Nearby

Air Quality

  Air Quality AQ Index Pollutant
Not available.

Snow Depth

Station Depth Elevation

Earthquake Activity

City Distance Mag. Time & Date
Minimum magnitude displayed is 2.5.

Coastal Water Temperatures

Place Temperature

Nearby Weather Stations